sensor_id;sensor_type;location;lat;lon;timestamp;pressure;altitude;pressure_sealevel;temperature;humidity
56040;BME280;43937;41.366;2.072;2024-01-30T00:01:43;102505.25;;;16.70;75.25
56040;BME280;43937;41.366;2.072;2024-01-30T00:04:09;102519.00;;;16.70;75.33
56040;BME280;43937;41.366;2.072;2024-01-30T00:06:34;102519.50;;;16.65;74.50
56040;BME280;43937;41.366;2.072;2024-01-30T00:09:00;102510.69;;;16.80;74.16
56040;BME280;43937;41.366;2.072;2024-01-30T00:11:25;102498.72;;;16.37;74.49
56040;BME280;43937;41.366;2.072;2024-01-30T00:13:53;102514.66;;;16.33;74.57
56040;BME280;43937;41.366;2.072;2024-01-30T00:16:23;102484.16;;;16.18;75.27
56040;BME280;43937;41.366;2.072;2024-01-30T00:18:52;102502.94;;;16.23;75.56
56040;BME280;43937;41.366;2.072;2024-01-30T00:21:19;102491.53;;;16.18;75.56
56040;BME280;43937;41.366;2.072;2024-01-30T00:23:44;102508.44;;;16.49;75.37
56040;BME280;43937;41.366;2.072;2024-01-30T00:26:10;102515.72;;;16.66;74.43
56040;BME280;43937;41.366;2.072;2024-01-30T00:28:39;102492.44;;;16.79;73.89
56040;BME280;43937;41.366;2.072;2024-01-30T00:31:05;102490.06;;;16.84;73.06
56040;BME280;43937;41.366;2.072;2024-01-30T00:33:30;102491.31;;;16.89;73.57
56040;BME280;43937;41.366;2.072;2024-01-30T00:35:56;102501.59;;;16.87;73.41
56040;BME280;43937;41.366;2.072;2024-01-30T00:38:21;102494.19;;;16.80;73.21
56040;BME280;43937;41.366;2.072;2024-01-30T00:40:48;102472.53;;;16.51;73.74
56040;BME280;43937;41.366;2.072;2024-01-30T00:43:13;102490.72;;;16.52;73.99
56040;BME280;43937;41.366;2.072;2024-01-30T00:45:39;102488.59;;;16.37;74.58
56040;BME280;43937;41.366;2.072;2024-01-30T00:48:04;102485.63;;;16.31;74.54
56040;BME280;43937;41.366;2.072;2024-01-30T00:50:30;102489.34;;;16.21;75.08
56040;BME280;43937;41.366;2.072;2024-01-30T00:52:55;102488.88;;;16.26;75.51
56040;BME280;43937;41.366;2.072;2024-01-30T00:55:21;102486.59;;;16.47;75.04
56040;BME280;43937;41.366;2.072;2024-01-30T00:57:46;102491.16;;;16.39;74.42
56040;BME280;43937;41.366;2.072;2024-01-30T01:00:13;102468.25;;;16.22;75.22
56040;BME280;43937;41.366;2.072;2024-01-30T01:02:41;102468.25;;;16.22;74.60
56040;BME280;43937;41.366;2.072;2024-01-30T01:05:06;102479.44;;;16.29;74.93
56040;BME280;43937;41.366;2.072;2024-01-30T01:07:32;102480.63;;;16.52;74.36
56040;BME280;43937;41.366;2.072;2024-01-30T01:09:57;102482.81;;;16.48;74.38
56040;BME280;43937;41.366;2.072;2024-01-30T01:12:23;102481.38;;;16.10;74.77
56040;BME280;43937;41.366;2.072;2024-01-30T01:14:48;102469.78;;;15.98;75.66
56040;BME280;43937;41.366;2.072;2024-01-30T01:17:14;102462.63;;;16.06;75.93
56040;BME280;43937;41.366;2.072;2024-01-30T01:19:39;102457.91;;;16.16;74.92
56040;BME280;43937;41.366;2.072;2024-01-30T01:22:04;102477.50;;;16.47;74.78
56040;BME280;43937;41.366;2.072;2024-01-30T01:24:31;102483.50;;;16.24;74.54
56040;BME280;43937;41.366;2.072;2024-01-30T01:26:58;102473.59;;;16.06;75.57
56040;BME280;43937;41.366;2.072;2024-01-30T01:29:24;102472.44;;;16.08;75.48
56040;BME280;43937;41.366;2.072;2024-01-30T01:31:57;102469.06;;;15.96;75.73
56040;BME280;43937;41.366;2.072;2024-01-30T01:34:23;102458.59;;;15.74;76.95
56040;BME280;43937;41.366;2.072;2024-01-30T01:36:49;102475.22;;;15.90;76.56
56040;BME280;43937;41.366;2.072;2024-01-30T01:39:15;102465.56;;;15.86;76.45
56040;BME280;43937;41.366;2.072;2024-01-30T01:41:41;102470.88;;;15.88;76.26
56040;BME280;43937;41.366;2.072;2024-01-30T01:44:07;102463.38;;;15.90;76.78
56040;BME280;43937;41.366;2.072;2024-01-30T01:46:33;102475.91;;;15.92;76.95
56040;BME280;43937;41.366;2.072;2024-01-30T01:49:00;102471.00;;;15.78;76.88
56040;BME280;43937;41.366;2.072;2024-01-30T01:51:27;102476.56;;;15.68;77.28
56040;BME280;43937;41.366;2.072;2024-01-30T01:53:57;102445.50;;;15.50;77.73
56040;BME280;43937;41.366;2.072;2024-01-30T01:56:23;102468.09;;;15.79;77.10
56040;BME280;43937;41.366;2.072;2024-01-30T01:58:49;102450.19;;;15.75;76.42
56040;BME280;43937;41.366;2.072;2024-01-30T02:01:18;102455.88;;;15.74;77.09
56040;BME280;43937;41.366;2.072;2024-01-30T02:03:46;102463.94;;;15.75;76.50
56040;BME280;43937;41.366;2.072;2024-01-30T02:06:12;102458.81;;;15.63;77.26
56040;BME280;43937;41.366;2.072;2024-01-30T02:08:39;102457.03;;;15.53;77.48
56040;BME280;43937;41.366;2.072;2024-01-30T02:11:05;102460.84;;;15.61;77.60
56040;BME280;43937;41.366;2.072;2024-01-30T02:13:30;102440.78;;;15.42;77.32
56040;BME280;43937;41.366;2.072;2024-01-30T02:15:56;102452.38;;;15.54;77.61
56040;BME280;43937;41.366;2.072;2024-01-30T02:18:22;102444.88;;;15.56;77.66
56040;BME280;43937;41.366;2.072;2024-01-30T02:20:48;102451.22;;;15.74;76.97
56040;BME280;43937;41.366;2.072;2024-01-30T02:23:15;102424.47;;;15.58;76.66
56040;BME280;43937;41.366;2.072;2024-01-30T02:25:42;102428.63;;;15.63;77.23
56040;BME280;43937;41.366;2.072;2024-01-30T02:28:12;102441.63;;;15.61;76.54
56040;BME280;43937;41.366;2.072;2024-01-30T02:30:38;102440.94;;;15.58;76.86
56040;BME280;43937;41.366;2.072;2024-01-30T02:33:04;102439.22;;;15.75;76.61
56040;BME280;43937;41.366;2.072;2024-01-30T02:35:30;102418.69;;;15.44;76.75
56040;BME280;43937;41.366;2.072;2024-01-30T02:37:55;102430.59;;;15.52;76.69
56040;BME280;43937;41.366;2.072;2024-01-30T02:40:21;102440.88;;;15.50;76.94
56040;BME280;43937;41.366;2.072;2024-01-30T02:42:46;102419.16;;;15.39;77.83
56040;BME280;43937;41.366;2.072;2024-01-30T02:45:12;102442.22;;;15.46;77.44
56040;BME280;43937;41.366;2.072;2024-01-30T02:47:38;102447.22;;;15.51;76.95
56040;BME280;43937;41.366;2.072;2024-01-30T02:50:04;102426.91;;;15.62;76.38
56040;BME280;43937;41.366;2.072;2024-01-30T02:52:30;102445.31;;;15.51;76.64
56040;BME280;43937;41.366;2.072;2024-01-30T02:54:55;102425.03;;;15.44;76.60
56040;BME280;43937;41.366;2.072;2024-01-30T02:57:21;102407.22;;;15.30;77.36
56040;BME280;43937;41.366;2.072;2024-01-30T02:59:46;102419.84;;;15.41;77.28
56040;BME280;43937;41.366;2.072;2024-01-30T03:02:12;102444.97;;;15.46;76.55
56040;BME280;43937;41.366;2.072;2024-01-30T03:04:37;102439.78;;;15.25;78.05
56040;BME280;43937;41.366;2.072;2024-01-30T03:07:05;102431.53;;;15.25;77.71
56040;BME280;43937;41.366;2.072;2024-01-30T03:09:31;102432.88;;;15.39;77.23
56040;BME280;43937;41.366;2.072;2024-01-30T03:11:56;102434.50;;;15.14;77.89
56040;BME280;43937;41.366;2.072;2024-01-30T03:14:21;102412.34;;;15.07;78.01
56040;BME280;43937;41.366;2.072;2024-01-30T03:16:47;102446.75;;;15.38;77.21
56040;BME280;43937;41.366;2.072;2024-01-30T03:19:12;102423.53;;;15.14;77.21
56040;BME280;43937;41.366;2.072;2024-01-30T03:21:38;102440.00;;;15.32;77.09
56040;BME280;43937;41.366;2.072;2024-01-30T03:24:03;102440.47;;;15.27;77.45
56040;BME280;43937;41.366;2.072;2024-01-30T03:26:29;102393.44;;;14.86;77.90
56040;BME280;43937;41.366;2.072;2024-01-30T03:28:54;102435.13;;;15.08;78.25
56040;BME280;43937;41.366;2.072;2024-01-30T03:31:20;102440.53;;;15.18;78.04
56040;BME280;43937;41.366;2.072;2024-01-30T03:33:45;102420.38;;;14.91;78.10
56040;BME280;43937;41.366;2.072;2024-01-30T03:36:11;102427.06;;;14.79;78.89
56040;BME280;43937;41.366;2.072;2024-01-30T03:38:36;102428.22;;;14.86;78.91
56040;BME280;43937;41.366;2.072;2024-01-30T03:41:02;102417.75;;;14.72;78.73
56040;BME280;43937;41.366;2.072;2024-01-30T03:43:28;102444.25;;;14.81;78.96
56040;BME280;43937;41.366;2.072;2024-01-30T03:45:53;102447.22;;;14.87;78.94
56040;BME280;43937;41.366;2.072;2024-01-30T03:48:20;102429.03;;;14.69;79.09
56040;BME280;43937;41.366;2.072;2024-01-30T03:50:46;102439.97;;;14.69;79.27
56040;BME280;43937;41.366;2.072;2024-01-30T03:53:11;102439.88;;;14.60;79.59
56040;BME280;43937;41.366;2.072;2024-01-30T03:55:37;102438.28;;;14.68;79.78
56040;BME280;43937;41.366;2.072;2024-01-30T03:58:02;102418.09;;;14.49;79.65
56040;BME280;43937;41.366;2.072;2024-01-30T04:00:28;102392.94;;;14.36;79.99
56040;BME280;43937;41.366;2.072;2024-01-30T04:02:53;102405.00;;;14.43;80.16
56040;BME280;43937;41.366;2.072;2024-01-30T04:05:19;102434.94;;;14.64;79.79
56040;BME280;43937;41.366;2.072;2024-01-30T04:07:44;102423.13;;;14.63;79.84
56040;BME280;43937;41.366;2.072;2024-01-30T04:10:10;102429.31;;;14.65;79.72
56040;BME280;43937;41.366;2.072;2024-01-30T04:12:35;102437.25;;;14.69;79.17
56040;BME280;43937;41.366;2.072;2024-01-30T04:15:01;102427.56;;;14.74;79.08
56040;BME280;43937;41.366;2.072;2024-01-30T04:17:27;102416.97;;;14.79;78.57
56040;BME280;43937;41.366;2.072;2024-01-30T04:19:54;102337.44;;;14.34;78.33
56040;BME280;43937;41.366;2.072;2024-01-30T04:22:20;102429.06;;;14.86;77.97
56040;BME280;43937;41.366;2.072;2024-01-30T04:24:45;102420.78;;;14.96;77.77
56040;BME280;43937;41.366;2.072;2024-01-30T04:27:10;102427.22;;;15.05;77.04
56040;BME280;43937;41.366;2.072;2024-01-30T04:29:36;102429.88;;;15.15;77.17
56040;BME280;43937;41.366;2.072;2024-01-30T04:32:01;102420.56;;;15.25;76.27
56040;BME280;43937;41.366;2.072;2024-01-30T04:34:27;102403.16;;;15.17;76.14
56040;BME280;43937;41.366;2.072;2024-01-30T04:36:52;102409.03;;;15.22;75.83
56040;BME280;43937;41.366;2.072;2024-01-30T04:39:18;102403.22;;;14.89;75.95
56040;BME280;43937;41.366;2.072;2024-01-30T04:41:43;102430.66;;;14.89;76.29
56040;BME280;43937;41.366;2.072;2024-01-30T04:44:08;102415.06;;;14.62;77.37
56040;BME280;43937;41.366;2.072;2024-01-30T04:46:34;102435.81;;;14.92;77.08
56040;BME280;43937;41.366;2.072;2024-01-30T04:48:59;102417.69;;;14.81;77.42
56040;BME280;43937;41.366;2.072;2024-01-30T04:51:25;102420.00;;;14.76;76.74
56040;BME280;43937;41.366;2.072;2024-01-30T04:53:50;102425.56;;;14.66;77.01
56040;BME280;43937;41.366;2.072;2024-01-30T04:56:16;102420.00;;;14.49;78.00
56040;BME280;43937;41.366;2.072;2024-01-30T04:58:41;102443.53;;;14.51;78.54
56040;BME280;43937;41.366;2.072;2024-01-30T05:01:07;102429.63;;;14.62;77.60
56040;BME280;43937;41.366;2.072;2024-01-30T05:03:35;102435.91;;;14.73;76.85
56040;BME280;43937;41.366;2.072;2024-01-30T05:06:01;102439.16;;;14.49;77.64
56040;BME280;43937;41.366;2.072;2024-01-30T05:08:26;102434.94;;;14.27;78.50
56040;BME280;43937;41.366;2.072;2024-01-30T05:10:52;102430.88;;;14.31;78.38
56040;BME280;43937;41.366;2.072;2024-01-30T05:13:17;102424.25;;;14.33;78.46
56040;BME280;43937;41.366;2.072;2024-01-30T05:15:42;102441.97;;;14.39;78.90
56040;BME280;43937;41.366;2.072;2024-01-30T05:18:08;102435.38;;;14.32;79.48
56040;BME280;43937;41.366;2.072;2024-01-30T05:20:33;102439.25;;;14.29;79.82
56040;BME280;43937;41.366;2.072;2024-01-30T05:22:59;102450.66;;;14.25;80.58
56040;BME280;43937;41.366;2.072;2024-01-30T05:25:24;102424.63;;;14.11;81.12
56040;BME280;43937;41.366;2.072;2024-01-30T05:27:50;102429.72;;;14.33;79.90
56040;BME280;43937;41.366;2.072;2024-01-30T05:30:15;102424.59;;;14.20;79.75
56040;BME280;43937;41.366;2.072;2024-01-30T05:32:40;102439.16;;;14.11;80.69
56040;BME280;43937;41.366;2.072;2024-01-30T05:35:06;102446.19;;;14.24;80.29
56040;BME280;43937;41.366;2.072;2024-01-30T05:37:33;102451.59;;;14.43;79.85
56040;BME280;43937;41.366;2.072;2024-01-30T05:39:58;102444.56;;;14.31;80.05
56040;BME280;43937;41.366;2.072;2024-01-30T05:42:24;102456.25;;;14.33;80.94
56040;BME280;43937;41.366;2.072;2024-01-30T05:44:50;102468.63;;;14.47;80.56
56040;BME280;43937;41.366;2.072;2024-01-30T05:47:15;102438.34;;;14.38;79.58
56040;BME280;43937;41.366;2.072;2024-01-30T05:49:41;102454.50;;;14.41;79.80
56040;BME280;43937;41.366;2.072;2024-01-30T05:52:07;102451.50;;;14.35;80.50
56040;BME280;43937;41.366;2.072;2024-01-30T05:54:32;102457.06;;;14.43;79.65
56040;BME280;43937;41.366;2.072;2024-01-30T05:56:58;102471.34;;;14.47;79.48
56040;BME280;43937;41.366;2.072;2024-01-30T05:59:24;102463.28;;;14.45;79.09
56040;BME280;43937;41.366;2.072;2024-01-30T06:01:50;102463.16;;;14.37;79.00
56040;BME280;43937;41.366;2.072;2024-01-30T06:04:15;102475.00;;;14.28;79.62
56040;BME280;43937;41.366;2.072;2024-01-30T06:06:41;102472.81;;;14.41;79.25
56040;BME280;43937;41.366;2.072;2024-01-30T06:09:06;102481.88;;;14.51;78.70
56040;BME280;43937;41.366;2.072;2024-01-30T06:11:34;102490.53;;;14.47;78.35
56040;BME280;43937;41.366;2.072;2024-01-30T06:14:00;102472.13;;;14.29;79.88
56040;BME280;43937;41.366;2.072;2024-01-30T06:16:25;102481.38;;;14.28;79.93
56040;BME280;43937;41.366;2.072;2024-01-30T06:18:55;102494.47;;;14.25;79.99
56040;BME280;43937;41.366;2.072;2024-01-30T06:21:20;102483.22;;;14.28;80.00
56040;BME280;43937;41.366;2.072;2024-01-30T06:23:46;102499.94;;;14.25;79.93
56040;BME280;43937;41.366;2.072;2024-01-30T06:26:11;102490.88;;;14.24;80.06
56040;BME280;43937;41.366;2.072;2024-01-30T06:28:37;102495.06;;;14.18;79.59
56040;BME280;43937;41.366;2.072;2024-01-30T06:31:02;102495.34;;;14.15;79.14
56040;BME280;43937;41.366;2.072;2024-01-30T06:33:28;102507.34;;;14.14;78.41
56040;BME280;43937;41.366;2.072;2024-01-30T06:35:53;102501.03;;;14.04;78.57
56040;BME280;43937;41.366;2.072;2024-01-30T06:38:19;102507.91;;;14.18;77.91
56040;BME280;43937;41.366;2.072;2024-01-30T06:40:44;102510.22;;;14.23;77.99
56040;BME280;43937;41.366;2.072;2024-01-30T06:43:09;102502.97;;;14.21;77.61
56040;BME280;43937;41.366;2.072;2024-01-30T06:45:35;102485.09;;;14.27;77.21
56040;BME280;43937;41.366;2.072;2024-01-30T06:48:00;102498.38;;;14.12;77.27
56040;BME280;43937;41.366;2.072;2024-01-30T06:50:26;102508.22;;;13.95;77.97
56040;BME280;43937;41.366;2.072;2024-01-30T06:52:52;102501.31;;;13.91;78.10
56040;BME280;43937;41.366;2.072;2024-01-30T06:55:18;102487.78;;;13.90;78.64
56040;BME280;43937;41.366;2.072;2024-01-30T06:57:43;102497.56;;;13.83;77.75
56040;BME280;43937;41.366;2.072;2024-01-30T07:00:09;102515.44;;;13.87;77.80
56040;BME280;43937;41.366;2.072;2024-01-30T07:02:35;102514.56;;;13.77;77.93
56040;BME280;43937;41.366;2.072;2024-01-30T07:05:01;102523.19;;;13.91;77.59
56040;BME280;43937;41.366;2.072;2024-01-30T07:07:28;102496.84;;;13.90;77.03
56040;BME280;43937;41.366;2.072;2024-01-30T07:09:54;102519.91;;;14.07;76.60
56040;BME280;43937;41.366;2.072;2024-01-30T07:12:22;102527.78;;;14.20;75.96
56040;BME280;43937;41.366;2.072;2024-01-30T07:14:49;102517.75;;;14.01;75.73
56040;BME280;43937;41.366;2.072;2024-01-30T07:17:15;102517.16;;;13.88;76.53
56040;BME280;43937;41.366;2.072;2024-01-30T07:19:41;102535.44;;;13.97;76.51
56040;BME280;43937;41.366;2.072;2024-01-30T07:22:06;102529.69;;;13.90;76.50
56040;BME280;43937;41.366;2.072;2024-01-30T07:24:32;102520.91;;;13.87;76.57
56040;BME280;43937;41.366;2.072;2024-01-30T07:26:57;102517.00;;;13.80;76.35
56040;BME280;43937;41.366;2.072;2024-01-30T07:29:23;102548.41;;;13.85;76.57
56040;BME280;43937;41.366;2.072;2024-01-30T07:31:48;102541.81;;;14.07;76.32
56040;BME280;43937;41.366;2.072;2024-01-30T07:34:14;102535.31;;;14.08;75.57
56040;BME280;43937;41.366;2.072;2024-01-30T07:36:39;102524.78;;;14.13;75.43
56040;BME280;43937;41.366;2.072;2024-01-30T07:39:04;102543.78;;;14.15;75.31
56040;BME280;43937;41.366;2.072;2024-01-30T07:41:30;102535.56;;;14.15;74.83
56040;BME280;43937;41.366;2.072;2024-01-30T07:43:55;102552.28;;;14.21;75.07
56040;BME280;43937;41.366;2.072;2024-01-30T07:46:21;102545.50;;;14.16;74.85
56040;BME280;43937;41.366;2.072;2024-01-30T07:48:46;102547.97;;;14.29;74.49
56040;BME280;43937;41.366;2.072;2024-01-30T07:51:12;102556.25;;;14.66;73.56
56040;BME280;43937;41.366;2.072;2024-01-30T07:53:37;102567.91;;;14.78;72.92
56040;BME280;43937;41.366;2.072;2024-01-30T07:56:03;102566.28;;;14.85;72.99
56040;BME280;43937;41.366;2.072;2024-01-30T07:58:29;102560.41;;;14.70;72.96
56040;BME280;43937;41.366;2.072;2024-01-30T08:00:54;102566.72;;;14.90;72.14
56040;BME280;43937;41.366;2.072;2024-01-30T08:03:22;102561.19;;;15.00;71.21
56040;BME280;43937;41.366;2.072;2024-01-30T08:05:47;102570.25;;;15.28;70.41
56040;BME280;43937;41.366;2.072;2024-01-30T08:08:13;102546.63;;;15.45;69.11
56040;BME280;43937;41.366;2.072;2024-01-30T08:10:38;102570.25;;;15.83;68.08
56040;BME280;43937;41.366;2.072;2024-01-30T08:13:04;102565.56;;;15.66;67.41
56040;BME280;43937;41.366;2.072;2024-01-30T08:15:29;102575.72;;;15.83;67.10
56040;BME280;43937;41.366;2.072;2024-01-30T08:17:55;102587.78;;;15.90;66.48
56040;BME280;43937;41.366;2.072;2024-01-30T08:20:24;102588.28;;;15.86;66.74
56040;BME280;43937;41.366;2.072;2024-01-30T08:22:49;102594.13;;;15.73;67.20
56040;BME280;43937;41.366;2.072;2024-01-30T08:25:15;102578.44;;;15.65;67.04
56040;BME280;43937;41.366;2.072;2024-01-30T08:27:40;102600.34;;;15.93;66.63
56040;BME280;43937;41.366;2.072;2024-01-30T08:30:07;102600.75;;;15.98;66.07
56040;BME280;43937;41.366;2.072;2024-01-30T08:32:32;102600.44;;;16.19;65.15
56040;BME280;43937;41.366;2.072;2024-01-30T08:34:58;102610.81;;;16.25;65.01
56040;BME280;43937;41.366;2.072;2024-01-30T08:37:24;102578.03;;;16.32;63.73
56040;BME280;43937;41.366;2.072;2024-01-30T08:39:49;102594.66;;;16.48;63.64
56040;BME280;43937;41.366;2.072;2024-01-30T08:42:15;102602.16;;;16.64;63.47
56040;BME280;43937;41.366;2.072;2024-01-30T08:44:41;102597.47;;;16.82;62.07
56040;BME280;43937;41.366;2.072;2024-01-30T08:47:06;102596.56;;;17.42;60.95
56040;BME280;43937;41.366;2.072;2024-01-30T08:49:31;102593.22;;;17.73;59.32
56040;BME280;43937;41.366;2.072;2024-01-30T08:51:57;102607.00;;;17.65;58.76
56040;BME280;43937;41.366;2.072;2024-01-30T08:54:23;102629.09;;;17.38;59.81
56040;BME280;43937;41.366;2.072;2024-01-30T08:56:49;102612.13;;;17.17;60.27
56040;BME280;43937;41.366;2.072;2024-01-30T08:59:14;102594.09;;;17.23;60.12
56040;BME280;43937;41.366;2.072;2024-01-30T09:01:40;102601.66;;;17.71;58.96
56040;BME280;43937;41.366;2.072;2024-01-30T09:04:05;102623.09;;;17.85;58.03
56040;BME280;43937;41.366;2.072;2024-01-30T09:06:31;102630.47;;;17.85;58.08
56040;BME280;43937;41.366;2.072;2024-01-30T09:08:57;102540.06;;;17.13;58.85
56040;BME280;43937;41.366;2.072;2024-01-30T09:11:23;102576.69;;;17.65;57.28
56040;BME280;43937;41.366;2.072;2024-01-30T09:13:48;102614.50;;;18.21;57.02
56040;BME280;43937;41.366;2.072;2024-01-30T09:16:14;102614.16;;;18.16;56.60
56040;BME280;43937;41.366;2.072;2024-01-30T09:18:41;102625.13;;;17.83;57.56
56040;BME280;43937;41.366;2.072;2024-01-30T09:21:06;102628.16;;;17.72;57.51
56040;BME280;43937;41.366;2.072;2024-01-30T09:23:32;102631.59;;;17.58;58.32
56040;BME280;43937;41.366;2.072;2024-01-30T09:25:58;102625.16;;;17.92;57.77
56040;BME280;43937;41.366;2.072;2024-01-30T09:28:24;102625.50;;;18.21;56.65
56040;BME280;43937;41.366;2.072;2024-01-30T09:30:49;102612.13;;;18.43;56.10
56040;BME280;43937;41.366;2.072;2024-01-30T09:33:15;102644.16;;;18.52;55.59
56040;BME280;43937;41.366;2.072;2024-01-30T09:35:40;102622.41;;;18.00;56.43
56040;BME280;43937;41.366;2.072;2024-01-30T09:38:06;102622.44;;;17.57;58.24
56040;BME280;43937;41.366;2.072;2024-01-30T09:40:31;102640.13;;;17.89;57.60
56040;BME280;43937;41.366;2.072;2024-01-30T09:42:58;102588.22;;;17.68;56.94
56040;BME280;43937;41.366;2.072;2024-01-30T09:45:25;102650.69;;;18.59;56.20
56040;BME280;43937;41.366;2.072;2024-01-30T09:47:51;102635.50;;;18.71;55.48
56040;BME280;43937;41.366;2.072;2024-01-30T09:50:17;102628.44;;;18.61;54.82
56040;BME280;43937;41.366;2.072;2024-01-30T09:52:47;102651.56;;;18.92;54.25
56040;BME280;43937;41.366;2.072;2024-01-30T09:55:13;102637.75;;;18.60;55.37
56040;BME280;43937;41.366;2.072;2024-01-30T09:57:39;102646.94;;;18.76;55.20
56040;BME280;43937;41.366;2.072;2024-01-30T10:00:06;102646.22;;;18.42;55.72
56040;BME280;43937;41.366;2.072;2024-01-30T10:02:35;102652.75;;;18.33;56.46
56040;BME280;43937;41.366;2.072;2024-01-30T10:05:00;102647.94;;;18.35;57.10
56040;BME280;43937;41.366;2.072;2024-01-30T10:07:26;102665.00;;;18.46;56.15
56040;BME280;43937;41.366;2.072;2024-01-30T10:09:53;102671.75;;;18.52;56.49
56040;BME280;43937;41.366;2.072;2024-01-30T10:12:18;102670.69;;;18.61;55.72
56040;BME280;43937;41.366;2.072;2024-01-30T10:14:44;102667.59;;;18.64;55.99
56040;BME280;43937;41.366;2.072;2024-01-30T10:17:10;102671.56;;;18.70;56.21
56040;BME280;43937;41.366;2.072;2024-01-30T10:19:38;102646.56;;;18.55;56.08
56040;BME280;43937;41.366;2.072;2024-01-30T10:22:04;102664.28;;;19.02;55.78
56040;BME280;43937;41.366;2.072;2024-01-30T10:24:30;102663.59;;;19.16;55.83
56040;BME280;43937;41.366;2.072;2024-01-30T10:26:56;102669.72;;;19.34;55.08
56040;BME280;43937;41.366;2.072;2024-01-30T10:29:22;102664.22;;;19.82;53.81
56040;BME280;43937;41.366;2.072;2024-01-30T10:32:00;102671.13;;;20.32;52.24
56040;BME280;43937;41.366;2.072;2024-01-30T10:34:26;102671.25;;;20.99;50.56
56040;BME280;43937;41.366;2.072;2024-01-30T10:39:31;102674.22;;;22.23;48.54
56040;BME280;43937;41.366;2.072;2024-01-30T10:42:03;102655.53;;;21.95;47.90
56040;BME280;43937;41.366;2.072;2024-01-30T10:47:29;102621.81;;;21.56;47.16
56040;BME280;43937;41.366;2.072;2024-01-30T10:49:56;102603.94;;;20.99;47.81
56040;BME280;43937;41.366;2.072;2024-01-30T10:52:25;102634.81;;;21.55;47.39
56040;BME280;43937;41.366;2.072;2024-01-30T10:54:54;102657.63;;;22.30;46.72
56040;BME280;43937;41.366;2.072;2024-01-30T10:57:26;102614.44;;;21.84;45.71
56040;BME280;43937;41.366;2.072;2024-01-30T11:00:03;102649.13;;;21.95;45.25
56040;BME280;43937;41.366;2.072;2024-01-30T11:02:45;102653.16;;;21.92;44.43
56040;BME280;43937;41.366;2.072;2024-01-30T11:05:11;102643.28;;;22.05;44.47
56040;BME280;43937;41.366;2.072;2024-01-30T11:07:39;102635.16;;;21.67;45.11
56040;BME280;43937;41.366;2.072;2024-01-30T11:10:08;102639.53;;;22.12;44.56
56040;BME280;43937;41.366;2.072;2024-01-30T11:12:38;102603.13;;;21.79;43.83
56040;BME280;43937;41.366;2.072;2024-01-30T11:15:15;102639.34;;;21.63;44.72
56040;BME280;43937;41.366;2.072;2024-01-30T11:22:47;102616.78;;;22.02;43.70
56040;BME280;43937;41.366;2.072;2024-01-30T11:25:18;102620.19;;;22.69;42.63
56040;BME280;43937;41.366;2.072;2024-01-30T11:27:45;102619.38;;;22.47;42.61
56040;BME280;43937;41.366;2.072;2024-01-30T11:30:30;102611.09;;;22.25;42.64
56040;BME280;43937;41.366;2.072;2024-01-30T11:33:06;102611.34;;;22.30;43.32
56040;BME280;43937;41.366;2.072;2024-01-30T11:35:35;102585.66;;;22.22;42.61
56040;BME280;43937;41.366;2.072;2024-01-30T11:38:02;102598.19;;;22.39;42.37
56040;BME280;43937;41.366;2.072;2024-01-30T11:40:29;102598.28;;;22.24;43.36
56040;BME280;43937;41.366;2.072;2024-01-30T11:45:21;102595.53;;;22.09;43.82
56040;BME280;43937;41.366;2.072;2024-01-30T11:47:47;102598.84;;;21.98;43.68
56040;BME280;43937;41.366;2.072;2024-01-30T11:50:13;102578.00;;;21.66;43.69
56040;BME280;43937;41.366;2.072;2024-01-30T11:52:39;102573.03;;;21.40;44.66
56040;BME280;43937;41.366;2.072;2024-01-30T11:55:05;102567.06;;;21.58;44.82
56040;BME280;43937;41.366;2.072;2024-01-30T11:57:31;102583.88;;;21.78;44.26
56040;BME280;43937;41.366;2.072;2024-01-30T11:59:57;102560.47;;;22.02;43.62
56040;BME280;43937;41.366;2.072;2024-01-30T12:02:22;102581.19;;;22.06;43.51
56040;BME280;43937;41.366;2.072;2024-01-30T12:04:48;102561.22;;;21.89;44.25
56040;BME280;43937;41.366;2.072;2024-01-30T12:07:13;102574.31;;;21.59;44.71
56040;BME280;43937;41.366;2.072;2024-01-30T12:09:41;102563.34;;;21.36;44.36
56040;BME280;43937;41.366;2.072;2024-01-30T12:12:07;102554.91;;;21.59;44.60
56040;BME280;43937;41.366;2.072;2024-01-30T12:14:38;102552.03;;;21.67;44.58
56040;BME280;43937;41.366;2.072;2024-01-30T12:17:04;102551.19;;;21.88;43.44
56040;BME280;43937;41.366;2.072;2024-01-30T12:19:30;102551.47;;;21.57;44.41
56040;BME280;43937;41.366;2.072;2024-01-30T12:21:57;102540.56;;;20.74;45.65
56040;BME280;43937;41.366;2.072;2024-01-30T12:24:27;102545.78;;;21.14;45.10
56040;BME280;43937;41.366;2.072;2024-01-30T12:26:59;102539.94;;;20.49;46.31
56040;BME280;43937;41.366;2.072;2024-01-30T12:29:25;102522.03;;;19.84;47.83
56040;BME280;43937;41.366;2.072;2024-01-30T12:31:54;102531.00;;;20.09;47.34
56040;BME280;43937;41.366;2.072;2024-01-30T12:34:20;102518.50;;;20.13;47.71
56040;BME280;43937;41.366;2.072;2024-01-30T12:36:47;102530.94;;;20.55;47.26
56040;BME280;43937;41.366;2.072;2024-01-30T12:39:14;102527.69;;;20.29;47.71
56040;BME280;43937;41.366;2.072;2024-01-30T12:41:40;102519.50;;;20.35;47.07
56040;BME280;43937;41.366;2.072;2024-01-30T12:44:06;102517.00;;;19.65;48.50
56040;BME280;43937;41.366;2.072;2024-01-30T12:46:34;102485.69;;;19.73;48.22
56040;BME280;43937;41.366;2.072;2024-01-30T12:49:02;102498.41;;;20.20;47.68
56040;BME280;43937;41.366;2.072;2024-01-30T12:51:28;102493.44;;;20.53;47.26
56040;BME280;43937;41.366;2.072;2024-01-30T12:53:53;102526.72;;;20.89;46.07
56040;BME280;43937;41.366;2.072;2024-01-30T12:56:19;102489.91;;;20.74;46.61
56040;BME280;43937;41.366;2.072;2024-01-30T12:58:44;102521.81;;;21.21;46.05